sim
Sign-in with your pilot id or email,
or register
Callsign
Passwort

Schedule Details

Flight Number: OEO3225
Departure: Stockholm Arlanda Airport (ESSA) at 13:30
Arrival: Munich Airport (EDDM) at 15:50

Weather Information
Getting current METAR information for ESSA 270850Z 02009KT 5000 BR OVC002 13/13 Q1015 BECMG 6000 NSW
Getting current METAR information for EDDM 270850Z 21007KT 150V240 9999 FEW033 11/05 Q1005 NOSIG

Schedule Frequency

Route Map